Time;durP1;ratioP1;P1;durP2;ratioP2;P2;SDS_P1;SDS_P2;PMS_P1;PMS_P2;Temp;Humidity;BMP_temperature;BMP_pressure;BME280_temperature;BME280_humidity;BME280_pressure;Samples;Min_cycle;Max_cycle;Signal;HPM_P1;HPM_P2
2022/10/19 00:01:35;;;;;;;2.85;1.98;;;21.60;70.00;;;;;;4106931;28;20097;-51
2022/10/19 00:03:59;;;;;;;3.72;2.20;;;21.60;70.00;;;;;;4114557;28;20054;-48
2022/10/19 00:06:30;;;;;;;3.67;2.00;;;21.60;70.00;;;;;;4107416;28;20058;-53
2022/10/19 00:09:16;;;;;;;2.28;1.77;;;21.70;69.90;;;;;;4107988;28;20528;-47
2022/10/19 00:11:42;;;;;;;3.58;1.95;;;21.70;70.00;;;;;;4107282;28;20046;-47
2022/10/19 00:14:06;;;;;;;2.95;2.20;;;21.70;70.00;;;;;;4104425;28;20034;-54
2022/10/19 00:16:31;;;;;;;2.63;1.90;;;21.70;70.00;;;;;;4108978;28;20505;-50
2022/10/19 00:18:57;;;;;;;3.08;2.20;;;21.80;69.80;;;;;;4106330;28;20360;-54
2022/10/19 00:21:20;;;;;;;2.72;1.85;;;21.80;70.00;;;;;;4105986;28;20039;-48
2022/10/19 00:23:43;;;;;;;3.15;2.00;;;21.80;70.00;;;;;;4111394;28;20504;-49
2022/10/19 00:26:06;;;;;;;3.67;2.40;;;21.80;69.70;;;;;;4107525;28;20652;-52
2022/10/19 00:28:29;;;;;;;4.13;2.20;;;21.90;69.80;;;;;;4108779;28;20315;-46
2022/10/19 00:30:52;;;;;;;2.42;1.77;;;21.90;69.90;;;;;;4113050;28;20070;-49
2022/10/19 00:33:20;;;;;;;3.30;2.30;;;21.90;69.90;;;;;;4104529;28;20101;-53
2022/10/19 00:35:42;;;;;;;3.17;2.00;;;21.90;69.70;;;;;;4107975;28;20057;-50
2022/10/19 00:38:05;;;;;;;3.42;2.42;;;22.00;69.80;;;;;;4102520;28;20071;-54
2022/10/19 00:40:28;;;;;;;3.97;2.90;;;22.00;70.00;;;;;;4103046;28;20043;-50
2022/10/19 00:42:55;;;;;;;5.38;3.35;;;22.00;70.10;;;;;;4099938;28;20512;-52
2022/10/19 00:45:18;;;;;;;5.65;4.30;;;22.10;70.90;;;;;;4104715;28;20169;-48
2022/10/19 00:47:42;;;;;;;5.70;4.55;;;22.10;71.60;;;;;;4103973;28;20517;-53
2022/10/19 00:50:06;;;;;;;6.10;4.85;;;22.20;72.90;;;;;;4103255;28;20137;-50
2022/10/19 00:52:29;;;;;;;5.67;4.63;;;22.20;73.70;;;;;;4103366;28;20042;-49
2022/10/19 00:54:54;;;;;;;6.72;4.90;;;22.30;73.50;;;;;;4105687;28;20272;-46
2022/10/19 00:57:17;;;;;;;6.10;3.88;;;22.30;73.50;;;;;;4110190;28;20042;-53
2022/10/19 00:59:41;;;;;;;5.90;4.50;;;22.30;72.60;;;;;;4110402;28;20573;-51
2022/10/19 01:02:13;;;;;;;5.57;3.60;;;22.40;72.80;;;;;;4106965;28;20035;-52
2022/10/19 01:04:45;;;;;;;5.75;4.35;;;22.40;72.40;;;;;;4118627;28;20141;-51
2022/10/19 01:07:15;;;;;;;5.93;4.30;;;22.40;72.70;;;;;;4096328;28;20046;-53
2022/10/19 01:09:38;;;;;;;6.00;4.35;;;22.50;72.50;;;;;;4112976;28;20046;-49
2022/10/19 01:12:19;;;;;;;5.13;3.67;;;22.50;72.70;;;;;;4115449;28;20054;-50
2022/10/19 01:14:54;;;;;;;6.05;4.03;;;22.60;72.50;;;;;;4107160;28;20050;-49
2022/10/19 01:17:50;;;;;;;6.70;4.60;;;22.60;72.30;;;;;;4107598;28;20027;-50
2022/10/19 01:20:34;;;;;;;5.57;4.18;;;22.70;72.30;;;;;;4111086;28;20447;-48
2022/10/19 01:23:09;;;;;;;6.10;3.80;;;22.70;72.10;;;;;;4108276;28;20034;-48
2022/10/19 01:25:54;;;;;;;6.43;4.40;;;22.70;72.10;;;;;;4110969;28;20128;-49
2022/10/19 01:28:53;;;;;;;5.57;4.05;;;22.80;71.90;;;;;;4109482;28;20774;-47
2022/10/19 01:31:46;;;;;;;7.05;4.40;;;22.80;72.10;;;;;;4107267;28;20034;-49
2022/10/19 01:34:33;;;;;;;5.68;4.00;;;22.80;72.20;;;;;;4115234;28;20178;-49
2022/10/19 01:37:16;;;;;;;6.90;4.00;;;22.90;72.30;;;;;;4105779;28;20494;-46
2022/10/19 01:39:42;;;;;;;5.88;4.22;;;22.90;72.60;;;;;;4109589;28;20542;-53
2022/10/19 01:42:12;;;;;;;5.00;4.00;;;23.00;72.60;;;;;;4105933;28;20046;-54
2022/10/19 01:45:05;;;;;;;5.93;4.18;;;23.00;72.70;;;;;;4105575;28;20046;-50
2022/10/19 01:47:31;;;;;;;5.57;4.32;;;23.00;72.40;;;;;;4099518;28;20050;-47
2022/10/19 01:50:05;;;;;;;5.05;3.80;;;23.00;72.20;;;;;;4117812;28;20053;-55
2022/10/19 01:52:29;;;;;;;6.90;3.55;;;23.10;72.10;;;;;;4112176;28;20043;-52
2022/10/19 01:54:55;;;;;;;6.93;3.70;;;23.10;72.10;;;;;;4100882;28;20034;-55
2022/10/19 01:57:32;;;;;;;5.80;3.53;;;23.10;71.70;;;;;;4110308;28;20038;-52
2022/10/19 01:59:57;;;;;;;5.18;4.07;;;23.10;71.70;;;;;;4102365;28;20038;-57
2022/10/19 02:02:21;;;;;;;5.40;3.67;;;23.20;71.60;;;;;;4106157;28;20069;-50
2022/10/19 02:04:46;;;;;;;4.60;3.47;;;23.20;71.40;;;;;;4100913;28;20098;-47
2022/10/19 02:07:10;;;;;;;3.92;2.90;;;23.30;71.40;;;;;;4114991;28;20075;-47
2022/10/19 02:09:33;;;;;;;5.35;3.25;;;23.30;71.20;;;;;;4110805;28;20053;-47
2022/10/19 02:12:00;;;;;;;4.72;3.30;;;23.30;71.30;;;;;;4108069;28;20047;-47
2022/10/19 02:14:31;;;;;;;4.32;2.80;;;23.30;71.30;;;;;;4112826;28;20054;-52
2022/10/19 02:17:05;;;;;;;4.40;2.80;;;23.30;71.00;;;;;;4113907;28;20045;-49
2022/10/19 02:19:27;;;;;;;3.80;2.83;;;23.40;70.90;;;;;;4111024;28;20046;-49
2022/10/19 02:21:51;;;;;;;4.50;2.95;;;23.40;70.80;;;;;;4115346;28;20109;-49
2022/10/19 02:24:13;;;;;;;7.00;2.83;;;23.40;70.70;;;;;;4112447;28;20816;-46
2022/10/19 02:26:37;;;;;;;4.50;3.20;;;23.40;70.70;;;;;;4110079;28;20066;-53
2022/10/19 02:28:59;;;;;;;3.95;2.83;;;23.40;70.60;;;;;;4109338;28;20046;-48
2022/10/19 02:31:23;;;;;;;3.88;2.65;;;23.40;70.60;;;;;;4109318;28;20577;-49
2022/10/19 02:33:45;;;;;;;4.38;2.92;;;23.50;71.10;;;;;;4105369;28;20050;-49
2022/10/19 02:36:08;;;;;;;3.28;2.35;;;23.50;70.40;;;;;;4108469;28;20046;-51
2022/10/19 02:38:31;;;;;;;4.28;2.70;;;23.50;70.50;;;;;;4103291;28;20038;-49
2022/10/19 02:41:09;;;;;;;4.18;2.40;;;23.50;70.30;;;;;;4106320;28;20050;-50
2022/10/19 02:43:36;;;;;;;3.30;2.38;;;23.60;70.20;;;;;;4112213;28;20089;-48
2022/10/19 02:46:10;;;;;;;5.05;2.75;;;23.60;70.10;;;;;;4105631;28;20101;-49
2022/10/19 02:48:34;;;;;;;4.05;2.20;;;23.60;70.10;;;;;;4105368;28;20062;-52
2022/10/19 02:50:57;;;;;;;3.75;2.45;;;23.60;70.00;;;;;;4103879;28;20049;-49
2022/10/19 02:53:20;;;;;;;4.35;2.80;;;23.60;70.00;;;;;;4106469;28;20105;-53
2022/10/19 02:55:43;;;;;;;4.47;2.60;;;23.70;70.00;;;;;;4108467;28;20034;-50
2022/10/19 02:58:06;;;;;;;4.63;2.40;;;23.70;70.00;;;;;;4100482;28;20039;-50
2022/10/19 03:00:28;;;;;;;2.63;2.10;;;23.70;69.80;;;;;;4112639;28;20280;-49
2022/10/19 03:02:51;;;;;;;4.00;2.40;;;23.80;69.80;;;;;;4112906;28;20165;-47
2022/10/19 03:05:14;;;;;;;3.22;1.95;;;23.80;69.70;;;;;;4116438;28;20054;-47
2022/10/19 03:07:36;;;;;;;4.38;2.55;;;23.80;69.70;;;;;;4114957;28;20042;-53
2022/10/19 03:09:59;;;;;;;3.95;2.20;;;23.80;69.50;;;;;;4120287;28;20038;-50
2022/10/19 03:12:22;;;;;;;3.05;1.88;;;23.80;69.40;;;;;;4123866;28;20038;-50
2022/10/19 03:15:31;;;;;;;3.35;1.55;;;23.80;69.40;;;;;;4128602;28;20383;-52
2022/10/19 03:17:54;;;;;;;5.22;2.10;;;23.80;69.30;;;;;;4120724;28;20165;-51
2022/10/19 03:20:16;;;;;;;3.38;1.88;;;23.90;69.20;;;;;;4117557;28;20050;-53
2022/10/19 03:22:39;;;;;;;2.72;1.70;;;23.90;69.20;;;;;;4115947;28;20041;-55
2022/10/19 03:25:02;;;;;;;2.75;1.60;;;23.90;69.10;;;;;;4110707;28;20150;-49
2022/10/19 03:27:25;;;;;;;3.55;1.80;;;23.90;69.00;;;;;;4110628;28;20042;-51
2022/10/19 03:29:47;;;;;;;2.58;1.50;;;24.00;68.90;;;;;;4107650;28;20047;-46
2022/10/19 03:32:10;;;;;;;2.80;1.67;;;24.00;68.80;;;;;;4109531;28;20495;-46
2022/10/19 03:34:33;;;;;;;2.83;1.48;;;24.00;68.80;;;;;;4108833;28;20038;-55
2022/10/19 03:36:57;;;;;;;2.70;1.48;;;24.00;68.70;;;;;;4107752;28;20077;-50
2022/10/19 03:39:20;;;;;;;3.45;1.35;;;24.00;68.70;;;;;;4110181;28;20541;-52
2022/10/19 03:41:43;;;;;;;3.10;1.77;;;24.00;68.60;;;;;;4117407;28;20043;-48
2022/10/19 03:44:07;;;;;;;3.63;1.73;;;24.00;68.50;;;;;;4103043;28;20049;-54
2022/10/19 03:46:30;;;;;;;1.92;1.05;;;24.00;68.40;;;;;;4095392;28;20042;-50
2022/10/19 03:48:54;;;;;;;1.95;1.05;;;24.00;68.40;;;;;;4112279;28;20145;-53
2022/10/19 03:51:28;;;;;;;2.58;1.40;;;24.10;68.40;;;;;;4109217;28;20038;-50
2022/10/19 03:53:56;;;;;;;2.78;1.08;;;24.10;68.30;;;;;;4106901;28;20039;-50
2022/10/19 03:56:21;;;;;;;2.35;1.20;;;24.10;68.30;;;;;;4096300;28;20035;-46
2022/10/19 03:58:46;;;;;;;2.38;1.30;;;24.10;68.30;;;;;;4106779;28;20117;-49
2022/10/19 04:01:17;;;;;;;1.27;1.10;;;24.10;68.20;;;;;;4108034;28;20129;-48
2022/10/19 04:03:40;;;;;;;2.42;1.17;;;24.10;68.20;;;;;;4105401;28;20047;-45
2022/10/19 04:06:10;;;;;;;1.83;1.00;;;24.10;68.10;;;;;;4105145;28;20047;-46
2022/10/19 04:08:35;;;;;;;1.65;1.00;;;24.20;68.10;;;;;;4109119;28;20141;-50
2022/10/19 04:11:06;;;;;;;1.17;0.80;;;24.20;68.10;;;;;;4110359;28;20493;-50
2022/10/19 04:13:30;;;;;;;1.98;0.85;;;24.20;68.00;;;;;;4106487;28;20043;-52
2022/10/19 04:15:53;;;;;;;1.35;1.00;;;24.20;67.90;;;;;;4109267;28;20039;-51
2022/10/19 04:18:15;;;;;;;1.50;0.90;;;24.20;67.80;;;;;;4110918;28;20041;-50
2022/10/19 04:20:41;;;;;;;1.27;0.93;;;24.30;67.80;;;;;;4109015;28;20153;-54
2022/10/19 04:23:04;;;;;;;1.15;0.80;;;24.30;67.60;;;;;;4113437;28;20458;-48
2022/10/19 04:25:26;;;;;;;1.70;0.75;;;24.40;67.50;;;;;;4117283;28;20043;-51
2022/10/19 04:27:49;;;;;;;0.93;0.77;;;24.40;67.40;;;;;;4108311;28;20038;-50
2022/10/19 04:30:12;;;;;;;0.90;0.85;;;24.50;67.30;;;;;;4108105;28;20481;-51
2022/10/19 04:32:34;;;;;;;2.38;1.05;;;24.50;67.20;;;;;;4108946;28;20069;-53
2022/10/19 04:34:57;;;;;;;2.53;0.90;;;24.50;67.10;;;;;;4110814;28;20046;-51
2022/10/19 04:37:20;;;;;;;1.58;0.82;;;24.60;67.10;;;;;;4113267;28;20533;-49
2022/10/19 04:39:43;;;;;;;1.52;0.82;;;24.60;67.00;;;;;;4112242;28;20030;-54
2022/10/19 04:42:06;;;;;;;2.63;0.93;;;24.60;66.90;;;;;;4110509;28;20043;-53
2022/10/19 04:44:28;;;;;;;1.40;0.70;;;24.60;66.70;;;;;;4112191;28;20501;-50
2022/10/19 04:46:51;;;;;;;1.15;0.70;;;24.70;66.80;;;;;;4106378;28;20118;-53
2022/10/19 04:49:14;;;;;;;1.25;0.70;;;24.70;66.80;;;;;;4108843;28;20050;-49
2022/10/19 04:51:37;;;;;;;1.73;0.70;;;24.70;66.70;;;;;;4104248;28;20727;-53
2022/10/19 04:53:59;;;;;;;1.80;0.68;;;24.70;66.70;;;;;;4104864;28;20406;-54
2022/10/19 04:56:25;;;;;;;1.65;0.80;;;24.70;66.70;;;;;;4088820;28;20122;-51
2022/10/19 04:58:48;;;;;;;0.63;0.60;;;24.70;66.70;;;;;;4108683;28;20043;-51
2022/10/19 05:01:19;;;;;;;1.48;0.70;;;24.70;66.70;;;;;;4100608;28;20067;-50
2022/10/19 05:03:42;;;;;;;1.33;1.02;;;24.70;66.70;;;;;;4108268;28;20562;-51
2022/10/19 05:06:05;;;;;;;1.77;0.90;;;24.70;66.70;;;;;;4110408;28;20046;-54
2022/10/19 05:08:28;;;;;;;2.70;1.00;;;24.70;66.80;;;;;;4107947;28;20748;-55
2022/10/19 05:10:51;;;;;;;1.65;0.90;;;24.70;66.80;;;;;;4109255;28;20045;-53
2022/10/19 05:13:14;;;;;;;1.42;0.70;;;24.70;66.80;;;;;;4107403;28;20057;-49
2022/10/19 05:15:36;;;;;;;1.00;0.70;;;24.70;66.80;;;;;;4103167;28;20035;-51
2022/10/19 05:18:00;;;;;;;1.17;0.60;;;24.70;66.90;;;;;;4107048;28;20046;-52
2022/10/19 05:20:23;;;;;;;;;;;24.70;66.90;;;;;;4112567;28;20125;-55
2022/10/19 05:22:45;;;;;;;0.98;0.80;;;24.70;67.00;;;;;;4112827;28;20008;-51
2022/10/19 05:25:08;;;;;;;1.42;0.60;;;24.60;67.00;;;;;;4104582;28;20163;-53
2022/10/19 05:27:31;;;;;;;1.90;1.10;;;24.60;67.00;;;;;;4103497;28;20070;-53
2022/10/19 05:29:54;;;;;;;2.50;0.70;;;24.60;67.00;;;;;;4110839;28;20076;-51
2022/10/19 05:32:16;;;;;;;1.77;0.90;;;24.60;67.10;;;;;;4109844;28;20133;-49
2022/10/19 05:34:39;;;;;;;1.65;0.93;;;24.60;67.10;;;;;;4114485;28;20076;-47
2022/10/19 05:37:02;;;;;;;2.40;1.20;;;24.60;67.10;;;;;;4103688;28;20090;-54
2022/10/19 05:39:25;;;;;;;1.17;0.57;;;24.60;67.10;;;;;;4101019;28;20047;-51
2022/10/19 05:41:48;;;;;;;1.75;0.90;;;24.60;67.10;;;;;;4102817;28;20140;-50
2022/10/19 05:44:19;;;;;;;1.07;0.70;;;24.70;67.10;;;;;;4098997;28;20077;-49
2022/10/19 05:46:42;;;;;;;2.58;0.80;;;24.70;67.00;;;;;;4102930;28;20406;-50
2022/10/19 05:49:04;;;;;;;1.27;0.80;;;24.70;67.00;;;;;;4097281;28;20110;-51
2022/10/19 05:51:28;;;;;;;2.28;1.10;;;24.70;67.00;;;;;;4104704;28;20325;-49
2022/10/19 05:53:52;;;;;;;2.70;1.10;;;24.70;66.90;;;;;;4095413;28;20078;-53
2022/10/19 05:56:25;;;;;;;;;;;24.70;66.90;;;;;;4111367;28;20085;-52
2022/10/19 05:58:48;;;;;;;2.55;1.17;;;24.70;67.00;;;;;;4109218;28;20498;-52
2022/10/19 06:01:11;;;;;;;2.70;1.17;;;24.70;67.00;;;;;;4109760;28;20537;-53
2022/10/19 06:03:34;;;;;;;1.85;1.33;;;24.70;67.00;;;;;;4109651;28;20046;-57
2022/10/19 06:05:57;;;;;;;2.42;1.33;;;24.70;67.00;;;;;;4108372;28;20051;-55
2022/10/19 06:08:21;;;;;;;2.67;1.25;;;24.70;67.10;;;;;;4110012;28;20371;-50
2022/10/19 06:10:46;;;;;;;2.25;1.17;;;24.60;67.10;;;;;;4104087;28;20082;-54
2022/10/19 06:13:08;;;;;;;3.17;1.33;;;24.60;67.20;;;;;;4088855;28;20198;-52
2022/10/19 06:15:34;;;;;;;1.65;1.02;;;24.60;67.30;;;;;;4102697;28;20041;-53
2022/10/19 06:17:57;;;;;;;4.25;1.35;;;24.60;67.30;;;;;;4100078;28;20043;-55
2022/10/19 06:20:19;;;;;;;5.07;1.60;;;24.60;67.40;;;;;;4106117;28;20041;-49
2022/10/19 06:22:42;;;;;;;1.63;1.00;;;24.60;67.50;;;;;;4105385;28;20050;-53
2022/10/19 06:25:05;;;;;;;3.28;1.38;;;24.60;67.60;;;;;;4100531;28;20401;-48
2022/10/19 06:27:29;;;;;;;3.57;1.27;;;24.50;67.60;;;;;;4109095;28;20057;-46
2022/10/19 06:29:52;;;;;;;1.50;0.95;;;24.50;67.60;;;;;;4110199;28;20506;-49
2022/10/19 06:32:15;;;;;;;2.00;1.20;;;24.50;67.70;;;;;;4109147;28;20042;-50
2022/10/19 06:34:37;;;;;;;3.23;1.40;;;24.50;67.80;;;;;;4112913;28;20046;-53
2022/10/19 06:37:00;;;;;;;2.88;1.45;;;24.50;67.80;;;;;;4108016;28;20307;-51
2022/10/19 06:39:23;;;;;;;2.47;1.10;;;24.50;67.80;;;;;;4111648;28;20042;-54
2022/10/19 06:41:45;;;;;;;3.65;1.27;;;24.50;67.70;;;;;;4105067;28;20067;-50
2022/10/19 06:44:09;;;;;;;2.70;1.30;;;24.50;67.70;;;;;;4100370;28;20039;-51
2022/10/19 06:46:32;;;;;;;1.85;1.10;;;24.50;67.70;;;;;;4107780;28;20060;-51
2022/10/19 06:49:00;;;;;;;3.30;1.33;;;24.50;67.60;;;;;;4111454;28;20100;-51
2022/10/19 06:51:24;;;;;;;2.88;1.25;;;24.50;67.60;;;;;;4107336;28;20042;-48
2022/10/19 06:53:47;;;;;;;3.42;1.33;;;24.50;67.70;;;;;;4098777;28;20030;-53
2022/10/19 06:56:10;;;;;;;2.50;1.10;;;24.60;67.70;;;;;;4108997;28;20117;-52
2022/10/19 06:58:37;;;;;;;2.28;1.38;;;24.50;67.70;;;;;;4110211;28;20047;-48
2022/10/19 07:01:01;;;;;;;3.88;1.45;;;24.60;67.70;;;;;;4111193;28;20086;-52
2022/10/19 07:03:25;;;;;;;3.47;1.10;;;24.60;67.70;;;;;;4108349;28;20049;-52
2022/10/19 07:05:52;;;;;;;;;;;24.50;67.70;;;;;;4105007;28;20701;-49
2022/10/19 07:08:14;;;;;;;2.15;1.10;;;24.50;67.80;;;;;;4106252;28;20008;-50
2022/10/19 07:10:37;;;;;;;3.10;1.23;;;24.50;67.80;;;;;;4102258;28;20467;-51
2022/10/19 07:13:00;;;;;;;2.20;0.80;;;24.50;67.80;;;;;;4101072;28;20387;-46
2022/10/19 07:15:22;;;;;;;3.70;1.40;;;24.50;68.60;;;;;;4108022;28;20045;-50
2022/10/19 07:17:45;;;;;;;1.65;1.02;;;24.50;67.90;;;;;;4101372;28;20053;-46
2022/10/19 07:20:09;;;;;;;1.88;1.10;;;24.40;68.00;;;;;;4101399;28;20142;-46
2022/10/19 07:22:32;;;;;;;3.60;1.20;;;24.40;68.00;;;;;;4101728;28;20048;-50
2022/10/19 07:24:54;;;;;;;1.92;1.00;;;24.40;68.00;;;;;;4104135;28;20043;-55
2022/10/19 07:27:17;;;;;;;2.42;1.23;;;24.40;68.00;;;;;;4101456;28;20050;-55
2022/10/19 07:29:40;;;;;;;2.63;1.17;;;24.40;68.00;;;;;;4112479;28;20046;-52
2022/10/19 07:32:03;;;;;;;2.50;1.38;;;24.40;68.00;;;;;;4110440;28;20279;-52
2022/10/19 07:34:26;;;;;;;2.13;1.08;;;24.40;68.00;;;;;;4107306;28;20468;-54
2022/10/19 07:36:49;;;;;;;2.33;1.35;;;24.40;68.10;;;;;;4111062;28;20502;-49
2022/10/19 07:39:12;;;;;;;3.95;1.13;;;24.40;68.10;;;;;;4104385;28;20441;-48
2022/10/19 07:41:35;;;;;;;2.67;1.10;;;24.40;68.10;;;;;;4111805;28;20101;-55
2022/10/19 07:43:58;;;;;;;2.17;1.30;;;24.40;68.20;;;;;;4113731;28;20049;-52
2022/10/19 07:46:24;;;;;;;1.45;0.98;;;24.40;68.20;;;;;;4112798;28;20081;-52
2022/10/19 07:48:47;;;;;;;2.90;1.08;;;24.40;68.30;;;;;;4113901;28;20671;-53
2022/10/19 07:51:12;;;;;;;4.03;1.40;;;24.30;68.20;;;;;;4110684;28;20118;-48
2022/10/19 07:53:35;;;;;;;1.63;0.95;;;24.30;68.20;;;;;;4109731;28;20504;-46
2022/10/19 07:56:10;;;;;;;1.85;1.20;;;24.30;68.20;;;;;;4107940;28;20615;-48
2022/10/19 07:58:33;;;;;;;1.90;0.80;;;24.30;68.90;;;;;;4108537;28;20603;-49
2022/10/19 08:01:03;;;;;;;2.53;1.23;;;24.30;68.30;;;;;;4105662;28;20047;-49
2022/10/19 08:03:26;;;;;;;1.65;1.08;;;24.30;68.30;;;;;;4111380;28;20089;-50
2022/10/19 08:05:48;;;;;;;1.08;0.70;;;24.30;68.30;;;;;;4111566;28;20649;-50
2022/10/19 08:08:11;;;;;;;3.10;1.05;;;24.30;68.30;;;;;;4104832;28;20047;-51
2022/10/19 08:10:34;;;;;;;1.83;1.05;;;24.30;68.40;;;;;;4105062;28;20414;-49
2022/10/19 08:12:56;;;;;;;3.03;0.93;;;24.30;68.40;;;;;;4103823;28;20039;-49
2022/10/19 08:15:19;;;;;;;1.67;0.93;;;24.30;68.50;;;;;;4100962;28;20555;-53
2022/10/19 08:17:42;;;;;;;1.60;0.90;;;24.30;68.50;;;;;;4099775;28;20945;-53
2022/10/19 08:20:06;;;;;;;1.55;0.88;;;24.30;68.50;;;;;;4105203;28;20046;-49
2022/10/19 08:22:29;;;;;;;2.30;1.08;;;24.20;68.50;;;;;;4104023;28;20150;-47
2022/10/19 08:24:52;;;;;;;2.60;0.90;;;24.20;68.50;;;;;;4110840;28;20039;-53
2022/10/19 08:27:14;;;;;;;3.13;1.42;;;24.20;68.60;;;;;;4111370;28;20069;-53
2022/10/19 08:29:37;;;;;;;2.58;0.82;;;24.20;68.70;;;;;;4115804;28;20501;-53
2022/10/19 08:32:00;;;;;;;2.30;1.13;;;24.20;68.70;;;;;;4110998;28;20037;-50
2022/10/19 08:34:22;;;;;;;2.42;1.05;;;24.20;68.70;;;;;;4116787;28;20049;-52
2022/10/19 08:36:45;;;;;;;1.80;1.10;;;24.20;68.70;;;;;;4113289;28;20491;-54
2022/10/19 08:39:11;;;;;;;3.03;1.20;;;24.20;68.70;;;;;;4107469;28;20045;-53
2022/10/19 08:41:57;;;;;;;2.28;1.08;;;24.20;68.80;;;;;;4112231;28;20043;-52
2022/10/19 08:44:44;;;;;;;2.05;0.90;;;24.20;68.80;;;;;;4108379;28;20386;-55
2022/10/19 08:47:27;;;;;;;1.50;0.95;;;24.20;68.80;;;;;;4111407;28;20130;-47
2022/10/19 08:49:51;;;;;;;3.10;1.23;;;24.20;68.90;;;;;;4103066;28;20053;-48
2022/10/19 08:52:16;;;;;;;2.58;1.27;;;24.20;69.40;;;;;;4105319;28;20501;-52
2022/10/19 08:54:54;;;;;;;2.50;0.80;;;24.20;69.60;;;;;;4102558;28;20070;-49
2022/10/19 08:57:39;;;;;;;2.80;0.98;;;24.20;69.70;;;;;;4100388;28;20605;-59
2022/10/19 09:00:16;;;;;;;3.13;1.02;;;24.20;70.00;;;;;;4100644;28;20402;-57
2022/10/19 09:03:02;;;;;;;3.55;1.40;;;24.20;70.60;;;;;;4103307;28;20491;-49
2022/10/19 09:05:46;;;;;;;2.30;0.73;;;24.20;71.00;;;;;;4100443;28;20507;-51
2022/10/19 09:08:11;;;;;;;3.42;1.05;;;24.20;71.50;;;;;;4099350;28;20054;-54
2022/10/19 09:10:38;;;;;;;1.23;0.82;;;24.30;71.80;;;;;;4099300;28;20145;-51
2022/10/19 09:13:07;;;;;;;2.42;0.70;;;24.30;71.70;;;;;;4098715;28;20508;-53
2022/10/19 09:15:40;;;;;;;1.15;0.57;;;24.30;71.60;;;;;;4099651;28;20442;-54
2022/10/19 09:18:03;;;;;;;9.65;1.20;;;24.40;71.70;;;;;;4101803;28;20434;-48
2022/10/19 09:20:40;;;;;;;3.40;0.80;;;24.40;71.70;;;;;;4096665;28;20638;-53
2022/10/19 09:23:25;;;;;;;3.97;1.00;;;24.40;71.50;;;;;;4101523;28;20050;-58
2022/10/19 09:25:50;;;;;;;1.60;0.80;;;24.40;71.50;;;;;;4102210;28;20386;-47
2022/10/19 09:28:34;;;;;;;2.00;0.77;;;24.40;71.50;;;;;;4099438;28;20521;-56
2022/10/19 09:30:58;;;;;;;6.70;1.70;;;24.40;71.40;;;;;;4103705;28;20453;-48
2022/10/19 09:33:27;;;;;;;;;;;24.40;71.50;;;;;;4103322;28;20035;-60
2022/10/19 09:35:52;;;;;;;4.93;0.98;;;24.40;71.50;;;;;;4108029;28;19953;-52
2022/10/19 09:38:16;;;;;;;3.90;1.02;;;24.40;71.40;;;;;;4100665;28;20038;-60
2022/10/19 09:40:39;;;;;;;11.68;0.90;;;24.40;71.30;;;;;;4099651;28;20056;-51
2022/10/19 09:43:18;;;;;;;4.15;0.90;;;24.50;71.40;;;;;;4102268;28;20305;-47
2022/10/19 09:45:52;;;;;;;3.83;1.10;;;24.50;71.40;;;;;;4103679;28;20069;-52
2022/10/19 09:48:37;;;;;;;4.75;0.82;;;24.50;71.40;;;;;;4102773;28;20142;-61
2022/10/19 09:51:00;;;;;;;;;;;24.50;71.50;;;;;;4102689;28;20042;-60
2022/10/19 09:53:25;;;;;;;4.03;1.05;;;24.50;71.40;;;;;;4099095;28;19919;-58
2022/10/19 09:56:11;;;;;;;3.15;0.77;;;24.50;71.40;;;;;;4100171;28;20573;-60
2022/10/19 09:58:35;;;;;;;11.38;1.25;;;24.50;71.40;;;;;;4097611;28;20842;-53
2022/10/19 10:00:58;;;;;;;2.50;0.93;;;24.50;71.30;;;;;;4104017;28;20057;-52
2022/10/19 10:03:42;;;;;;;2.67;0.73;;;24.50;71.30;;;;;;4102061;28;20447;-58
2022/10/19 10:06:08;;;;;;;2.42;0.88;;;24.50;71.30;;;;;;4097049;28;20482;-55
2022/10/19 10:08:36;;;;;;;2.80;1.05;;;24.50;71.30;;;;;;4098738;28;20046;-50
2022/10/19 10:11:24;;;;;;;2.85;1.00;;;24.50;71.20;;;;;;4102138;28;20138;-56
2022/10/19 10:13:52;;;;;;;0.82;0.65;;;24.60;71.40;;;;;;4097452;28;20042;-52
2022/10/19 10:16:18;;;;;;;3.60;1.02;;;24.50;71.30;;;;;;4102121;28;20145;-57
2022/10/19 10:18:58;;;;;;;8.32;1.05;;;24.50;71.30;;;;;;4103021;28;20046;-48
2022/10/19 10:21:30;;;;;;;2.00;0.63;;;24.50;71.20;;;;;;4102745;28;20069;-50
2022/10/19 10:24:20;;;;;;;2.03;0.60;;;24.50;71.20;;;;;;4102346;28;20660;-53
2022/10/19 10:26:49;;;;;;;2.40;0.77;;;24.50;71.10;;;;;;4102626;28;20137;-51
2022/10/19 10:29:26;;;;;;;1.73;0.60;;;24.50;71.20;;;;;;4101104;28;20061;-52
2022/10/19 10:31:58;;;;;;;4.10;0.85;;;24.50;71.10;;;;;;4099386;28;20051;-50
2022/10/19 10:34:32;;;;;;;3.58;0.70;;;24.50;71.20;;;;;;4100249;28;20121;-54
2022/10/19 10:36:55;;;;;;;0.60;0.40;;;24.50;71.10;;;;;;4103266;28;20093;-52
2022/10/19 10:39:27;;;;;;;2.92;0.93;;;24.50;71.10;;;;;;4101963;28;20126;-46
2022/10/19 10:41:50;;;;;;;0.90;0.50;;;24.50;71.10;;;;;;4102052;28;20038;-53
2022/10/19 10:44:25;;;;;;;4.70;1.35;;;24.50;71.00;;;;;;4104949;28;20042;-57
2022/10/19 10:46:58;;;;;;;1.10;0.60;;;24.60;71.10;;;;;;4100426;28;20086;-51
2022/10/19 10:49:24;;;;;;;2.65;0.88;;;24.50;71.10;;;;;;4102678;28;20129;-55
2022/10/19 10:52:00;;;;;;;1.92;0.70;;;24.60;71.10;;;;;;4102471;28;20082;-56
2022/10/19 10:54:26;;;;;;;1.95;0.77;;;24.60;71.10;;;;;;4104992;28;20050;-58
2022/10/19 10:57:29;;;;;;;1.73;0.98;;;24.60;71.10;;;;;;4099793;28;20027;-50
2022/10/19 11:00:11;;;;;;;1.80;0.80;;;24.60;71.00;;;;;;4070305;28;20071;-51
2022/10/19 11:02:45;;;;;;;2.70;0.80;;;24.60;71.00;;;;;;4070566;29;20056;-52
2022/10/19 11:05:30;;;;;;;2.20;0.68;;;24.60;71.00;;;;;;4095491;28;20093;-56
2022/10/19 11:08:12;;;;;;;2.50;0.70;;;24.60;70.80;;;;;;4105576;28;20049;-55
2022/10/19 11:10:42;;;;;;;5.28;1.10;;;24.60;70.70;;;;;;4106664;28;20106;-51
2022/10/19 11:13:20;;;;;;;8.20;1.25;;;24.50;70.40;;;;;;4101560;28;20097;-48
2022/10/19 11:16:17;;;;;;;3.40;1.20;;;24.50;70.20;;;;;;4103684;28;20556;-46
2022/10/19 11:19:03;;;;;;;3.55;0.80;;;24.50;71.00;;;;;;4102865;28;21394;-54
2022/10/19 11:21:55;;;;;;;10.48;1.00;;;24.50;71.10;;;;;;4109604;28;20130;-56
2022/10/19 11:24:37;;;;;;;4.20;0.80;;;24.50;71.20;;;;;;4103623;28;20047;-52
2022/10/19 11:27:11;;;;;;;4.45;1.60;;;24.50;71.10;;;;;;4105140;28;20041;-48
2022/10/19 11:30:09;;;;;;;1.13;0.80;;;24.50;71.20;;;;;;4103859;28;20569;-55
2022/10/19 11:32:47;;;;;;;1.83;0.60;;;24.50;71.20;;;;;;4106227;28;20125;-55
2022/10/19 11:35:53;;;;;;;1.60;0.70;;;24.50;71.20;;;;;;4103363;28;20102;-58
2022/10/19 11:38:29;;;;;;;4.15;0.80;;;24.50;71.20;;;;;;4087893;28;20393;-51
2022/10/19 11:41:00;;;;;;;4.93;1.00;;;24.50;71.20;;;;;;4105657;28;20039;-53
2022/10/19 11:43:46;;;;;;;1.55;0.65;;;24.50;71.20;;;;;;4103464;28;20050;-58
2022/10/19 11:46:20;;;;;;;2.63;1.13;;;24.50;71.30;;;;;;4104093;28;20480;-45
2022/10/19 11:49:07;;;;;;;2.03;0.77;;;24.50;71.20;;;;;;4107194;28;20379;-52
2022/10/19 11:51:42;;;;;;;3.25;0.82;;;24.50;71.50;;;;;;4107128;28;20367;-58
2022/10/19 11:57:22;;;;;;;2.03;0.80;;;24.50;71.50;;;;;;4107700;28;20034;-54
2022/10/19 11:59:54;;;;;;;3.33;0.80;;;24.50;71.50;;;;;;4110498;28;20026;-56
2022/10/19 12:02:47;;;;;;;2.55;0.68;;;24.50;71.50;;;;;;4108413;28;20113;-55
2022/10/19 12:05:18;;;;;;;1.95;0.52;;;24.50;71.50;;;;;;4095478;28;20826;-55
2022/10/19 12:07:54;;;;;;;2.25;0.85;;;24.50;71.50;;;;;;4099188;28;20039;-50
2022/10/19 12:10:17;;;;;;;2.50;0.75;;;24.50;71.50;;;;;;4103413;28;20049;-55
2022/10/19 12:12:50;;;;;;;2.70;0.80;;;24.50;71.60;;;;;;4103609;28;21522;-49
2022/10/19 12:15:27;;;;;;;2.85;0.70;;;24.50;71.70;;;;;;4102760;28;20123;-51
2022/10/19 12:17:53;;;;;;;3.55;1.13;;;24.50;71.70;;;;;;4102817;28;20498;-57
2022/10/19 12:20:29;;;;;;;3.00;0.82;;;24.50;71.80;;;;;;4102636;28;20058;-58
2022/10/19 12:22:52;;;;;;;3.03;0.85;;;24.50;71.90;;;;;;4104887;28;20097;-51
2022/10/19 12:25:17;;;;;;;2.15;1.08;;;24.50;71.90;;;;;;4105517;28;20062;-47
2022/10/19 12:27:41;;;;;;;3.80;0.80;;;24.50;71.90;;;;;;4106662;28;21127;-46
2022/10/19 12:30:13;;;;;;;2.08;0.82;;;24.50;71.90;;;;;;4107539;28;20053;-47
2022/10/19 12:33:13;;;;;;;2.70;1.10;;;24.50;71.90;;;;;;4105885;28;20435;-58
2022/10/19 12:35:58;;;;;;;2.95;0.88;;;24.50;71.80;;;;;;4104068;28;20716;-54
2022/10/19 12:38:50;;;;;;;3.03;0.73;;;24.50;71.80;;;;;;4109270;28;20042;-55
2022/10/19 12:41:29;;;;;;;1.92;0.80;;;24.50;71.80;;;;;;4103466;28;20030;-49
2022/10/19 12:44:22;;;;;;;3.67;1.00;;;24.50;71.80;;;;;;4100213;28;20068;-48
2022/10/19 12:46:50;;;;;;;4.32;0.80;;;24.50;71.80;;;;;;4101607;28;20702;-53
2022/10/19 12:49:35;;;;;;;2.05;0.93;;;24.50;71.80;;;;;;4104418;28;20050;-57
2022/10/19 12:52:00;;;;;;;;;;;24.50;71.80;;;;;;4098789;28;20081;-49
2022/10/19 12:54:28;;;;;;;2.10;0.70;;;24.50;71.80;;;;;;4099701;28;19914;-55
2022/10/19 12:56:53;;;;;;;3.40;0.75;;;24.50;71.80;;;;;;4104367;28;20026;-59
2022/10/19 12:59:28;;;;;;;2.63;0.70;;;24.50;71.70;;;;;;4099462;28;20106;-60